Latest Weather Observations for Gabo Island

IDN60801

Issued at 9:52 pm EST Tuesday 4 August 2020 (issued every 10 minutes, with the page automatically refreshed every 10 minutes)

About weather observations | Map of weather stations | Latest weather observations for NSW | Other Formats
Station Details ID: 084016 Name: GABO ISLAND LIGHTHOUSE Lat: -37.57 Lon: 149.92 Height: 15.0 m
Data from the previous 72 hours. | See also: Recent months at Gabo Island
Date/Time
EST
Temp
°C
App
Temp
°C
Dew
Point
°C
Rel
Hum
%
Delta-T
°C
Wind Press
QNH
hPa
Press
MSL
hPa
Rain since
9am
mm
Dir  Spd
km/h
Gust
km/h
Spd
kts
Gust
kts
04/09:30pm 6.4 1.8 1.7 72 1.9 WNW 15 20 8 11 1010.5 1010.5 0.0
04/09:00pm 6.7 2.5 1.5 69 2.1 NW 13 20 7 11 1010.3 1010.3 0.0
04/08:30pm 6.8 2.6 1.9 71 2.0 NW 13 17 7 9 1010.1 1010.1 0.0
04/08:00pm 7.0 2.5 1.9 70 2.1 WNW 15 22 8 12 1010.0 1010.0 0.0
04/07:30pm 6.9 2.8 2.0 71 2.0 NW 13 20 7 11 1009.7 1009.7 0.0
04/07:00pm 6.7 2.2 2.3 73 1.8 WNW 15 20 8 11 1009.5 1009.5 0.0
04/06:30pm 7.1 2.5 1.7 68 2.2 W 15 24 8 13 1009.6 1009.6 0.0
04/06:00pm 7.8 1.9 1.4 64 2.6 W 22 28 12 15 1009.5 1009.5 0.0
04/05:30pm 7.8 1.8 1.1 62 2.7 W 22 30 12 16 1009.4 1009.4 0.0
04/05:00pm 8.3 0.4 0.9 59 3.0 WSW 32 43 17 23 1009.2 1009.2 0.0
04/04:30pm 9.0 0.0 2.4 63 2.8 WSW 39 52 21 28 1008.9 1008.9 0.0
04/04:29pm 8.8 -0.6 2.1 63 2.8 WSW 41 59 22 32 1008.9 1008.9 0.0
04/04:00pm 9.9 -1.0 1.5 56 3.5 SW 48 63 26 34 1008.6 1008.6 0.0
04/03:30pm 9.7 -0.5 0.9 54 3.6 SW 44 56 24 30 1008.4 1008.4 0.0
04/03:00pm 9.9 0.8 1.8 57 3.4 SW 39 44 21 24 1008.1 1008.1 0.0
04/02:30pm 9.6 -0.3 1.7 58 3.3 SW 43 50 23 27 1008.2 1008.2 0.0
04/02:00pm 9.2 -1.1 2.6 63 2.8 SW 46 57 25 31 1008.0 1008.0 0.0
04/01:30pm 8.9 -2.7 4.1 72 2.1 SW 54 65 29 35 1008.0 1008.0 0.0
04/01:00pm 9.4 -1.4 4.2 70 2.3 SW 50 59 27 32 1008.3 1008.3 0.0
04/12:30pm 9.7 -0.7 4.3 69 2.4 SW 48 59 26 32 1008.4 1008.4 0.0
04/12:00pm 9.2 -0.2 5.5 78 1.7 SW 44 57 24 31 1008.8 1008.8 0.0
04/11:55am 9.4 0.9 5.2 75 1.9 WSW 39 57 21 31 1008.7 1008.7 0.0
04/11:30am 9.9 1.9 5.5 74 2.0 WSW 37 44 20 24 1009.0 1009.0 0.0
04/11:00am 9.4 2.0 5.0 74 2.0 WSW 33 41 18 22 1009.4 1009.4 0.0
04/10:30am 9.8 1.9 6.4 79 1.6 WSW 37 46 20 25 1009.5 1009.5 0.0
04/10:00am 9.6 3.1 6.6 81 1.4 WSW 30 37 16 20 1009.6 1009.6 0.0
04/09:30am 9.6 2.4 5.9 78 1.7 WSW 33 43 18 23 1009.6 1009.6 0.0
04/09:00am 9.6 1.8 4.9 72 2.1 WSW 35 46 19 25 1009.7 1009.7 0.0
04/08:30am 10.1 3.1 6.0 76 1.9 WSW 32 41 17 22 1009.5 1009.5 0.0
04/08:00am 10.4 2.9 6.3 76 1.9 WSW 35 44 19 24 1009.2 1009.2 0.0
04/07:49am 10.6 3.3 7.3 80 1.6 WSW 35 56 19 30 1009.1 1009.1 0.0
04/07:45am 10.5 4.0 6.7 77 1.8 WSW 30 46 16 25 1009.1 1009.1 0.0
04/07:30am 10.3 5.6 7.6 83 1.3 W 22 30 12 16 1009.0 1009.0 0.0
04/07:00am 10.1 4.6 7.4 83 1.3 W 26 35 14 19 1008.7 1008.7 0.0
04/06:30am 10.3 4.6 6.5 77 1.8 W 26 43 14 23 1007.8 1007.8 0.0
04/06:25am 9.4 5.4 6.6 83 1.3 WNW 17 43 9 23 1007.7 1007.7 0.0
04/06:00am 11.1 8.0 7.1 76 1.9 NNW 13 20 7 11 1007.1 1007.1 0.0
04/05:30am 11.7 7.9 9.1 84 1.3 N 19 24 10 13 1007.0 1007.0 0.0
04/05:00am 11.2 7.7 8.8 85 1.2 NNE 17 22 9 12 1007.3 1007.3 0.0
04/04:30am 11.5 8.0 8.7 83 1.4 N 17 20 9 11 1007.7 1007.7 0.0
04/04:00am 11.7 8.4 9.5 86 1.1 N 17 19 9 10 1008.0 1008.0 0.0
04/03:30am 10.7 8.0 9.1 90 0.8 N 13 15 7 8 1008.4 1008.4 0.0
04/03:00am 10.0 7.6 8.6 91 0.7 N 11 13 6 7 1008.7 1008.7 0.0
04/02:30am 10.3 9.9 8.2 87 1.0 CALM 0 0 0 0 1009.2 1009.2 0.0
04/02:00am 10.6 9.2 8.8 89 0.9 W 6 9 3 5 1009.5 1009.5 0.0
04/01:30am 10.8 8.1 9.0 89 0.9 WNW 13 17 7 9 1009.9 1009.9 0.0
04/01:00am 10.4 7.7 8.8 90 0.8 NW 13 13 7 7 1010.2 1010.2 0.0
04/12:30am 10.6 7.5 8.8 89 0.9 W 15 19 8 10 1010.7 1010.7 0.0
04/12:00am 11.0 8.0 9.2 89 0.9 W 15 19 8 10 1011.1 1011.1 0.0
 
Date/Time
EST
Temp
°C
App
Temp
°C
Dew
Point
°C
Rel
Hum
%
Delta-T
°C
Wind Press
QNH
hPa
Press
MSL
hPa
Rain since
9am
mm
Dir  Spd
km/h
Gust
km/h
Spd
kts
Gust
kts
03/11:30pm 11.1 7.4 9.5 90 0.8 W 19 20 10 11 1011.3 1011.3 0.0
03/11:00pm 11.2 8.6 9.4 89 0.9 WNW 13 15 7 8 1011.4 1011.4 0.0
03/10:30pm 12.0 8.5 10.3 89 0.9 W 19 20 10 11 1011.6 1011.6 0.0
03/10:00pm 12.4 9.1 10.9 90 0.8 W 19 24 10 13 1011.8 1011.8 0.0
03/09:30pm 12.4 8.2 8.1 75 2.1 WSW 20 24 11 13 1012.0 1012.0 0.0
03/09:00pm 12.2 9.4 10.1 87 1.1 WSW 15 20 8 11 1012.1 1012.1 0.0
03/08:30pm 12.0 10.9 6.8 70 2.5 SSW 2 9 1 5 1012.0 1012.0 0.0
03/08:00pm 12.5 10.7 5.4 62 3.3 SSE 4 6 2 3 1011.9 1011.9 0.0
03/07:30pm 12.8 10.5 4.8 58 3.7 NE 6 7 3 4 1012.0 1012.0 0.0
03/07:00pm 13.1 10.6 3.8 53 4.2 N 6 7 3 4 1011.9 1011.9 0.0
03/06:30pm 12.3 10.3 6.9 69 2.6 NE 7 9 4 5 1011.8 1011.8 0.0
03/06:00pm 13.2 10.6 6.0 61 3.4 NNE 9 11 5 6 1011.9 1011.9 0.0
03/05:30pm 12.7 10.2 6.4 65 3.0 NNE 9 11 5 6 1011.8 1011.8 0.0
03/05:00pm 13.7 13.4 8.7 72 2.5 CALM 0 0 0 0 1012.1 1012.1 0.0
03/04:30pm 13.9 12.7 8.1 68 2.9 NNE 4 7 2 4 1012.2 1012.2 0.0
03/04:00pm 13.8 12.2 8.9 72 2.5 NNE 7 9 4 5 1012.4 1012.4 0.0
03/03:30pm 14.2 12.7 9.3 72 2.5 NNE 7 9 4 5 1012.5 1012.5 0.0
03/03:00pm 14.3 12.9 9.4 72 2.5 NNE 7 11 4 6 1012.6 1012.6 0.0
03/02:30pm 14.8 13.1 8.5 66 3.2 NE 7 9 4 5 1013.0 1013.0 0.0
03/02:00pm 14.5 12.9 8.6 67 3.0 NNE 7 9 4 5 1013.1 1013.1 0.0
03/01:30pm 14.4 13.2 10.2 76 2.2 ENE 7 7 4 4 1013.4 1013.4 0.0
03/01:00pm 14.4 13.0 8.9 69 2.8 ENE 6 7 3 4 1013.8 1013.8 0.0
03/12:30pm 14.3 12.4 6.9 61 3.6 NE 6 7 3 4 1014.2 1014.2 0.0
03/12:00pm 14.2 12.5 8.2 67 3.0 NE 7 9 4 5 1014.7 1014.7 0.0
03/11:30am 14.2 12.1 8.4 68 2.9 NNE 9 9 5 5 1015.3 1015.3 0.0
03/11:00am 13.7 10.8 6.6 62 3.4 NNE 11 11 6 6 1015.8 1015.8 0.0
03/10:30am 14.1 11.9 6.4 60 3.7 NNW 7 9 4 5 1016.0 1016.0 0.0
03/10:00am 13.0 10.7 5.0 58 3.7 ENE 6 9 3 5 1016.2 1016.2 0.0
03/09:30am 11.9 9.1 5.2 63 3.1 SW 9 11 5 6 1016.5 1016.5 0.0
03/09:00am 11.7 8.7 5.9 67 2.7 WSW 11 15 6 8 1016.6 1016.6 0.0
03/08:30am 11.2 8.5 5.8 69 2.5 SW 9 11 5 6 1016.7 1016.7 0.0
03/08:00am 10.3 8.1 6.0 75 2.0 N 7 9 4 5 1016.5 1016.5 0.0
03/07:30am 9.3 7.1 5.3 76 1.8 N 6 9 3 5 1016.8 1016.8 0.0
03/07:00am 8.8 7.7 5.0 77 1.7 CALM 0 0 0 0 1016.7 1016.7 0.0
03/06:30am 9.8 8.5 5.9 77 1.8 NNE 2 6 1 3 1016.7 1016.7 0.0
03/06:00am 10.8 10.0 6.5 75 2.0 CALM 0 0 0 0 1016.5 1016.5 0.0
03/05:30am 9.5 8.2 4.3 70 2.3 CALM 0 0 0 0 1016.6 1016.6 0.0
03/05:00am 9.5 6.8 5.8 78 1.7 W 9 13 5 7 1016.7 1016.7 0.0
03/04:30am 8.9 6.4 6.5 85 1.1 SW 9 9 5 5 1016.9 1016.9 0.0
03/04:00am 9.8 9.0 6.3 79 1.6 CALM 0 0 0 0 1017.2 1017.2 0.0
03/03:30am 10.3 9.2 5.2 70 2.3 CALM 0 0 0 0 1017.3 1017.3 0.0
03/03:00am 9.8 8.8 5.4 74 2.0 CALM 0 0 0 0 1017.6 1017.6 0.0
03/02:30am 9.4 7.7 5.9 79 1.6 SW 4 6 2 3 1017.9 1017.9 0.0
03/02:00am 9.5 7.4 5.8 78 1.7 W 6 7 3 4 1018.3 1018.3 0.0
03/01:30am 9.8 7.2 3.0 62 2.9 NW 6 9 3 5 1018.7 1018.7 0.0
03/01:00am 10.0 6.1 3.6 64 2.8 NNE 13 15 7 8 1019.0 1019.0 0.0
03/12:30am 9.4 5.4 3.1 65 2.7 N 13 15 7 8 1019.4 1019.4 0.0
03/12:00am 10.4 5.9 4.3 66 2.7 N 17 17 9 9 1019.7 1019.7 0.0
 
Date/Time
EST
Temp
°C
App
Temp
°C
Dew
Point
°C
Rel
Hum
%
Delta-T
°C
Wind Press
QNH
hPa
Press
MSL
hPa
Rain since
9am
mm
Dir  Spd
km/h
Gust
km/h
Spd
kts
Gust
kts
02/11:30pm 10.8 6.5 5.3 69 2.5 NNE 17 20 9 11 1020.0 1020.0 0.0
02/11:00pm 10.2 6.3 5.4 72 2.2 N 15 17 8 9 1020.4 1020.4 0.0
02/10:30pm 10.5 6.7 5.9 73 2.1 N 15 17 8 9 1020.6 1020.6 0.0
02/10:00pm 11.0 6.8 5.8 70 2.4 NNE 17 20 9 11 1020.7 1020.7 0.0
02/09:30pm 11.5 6.7 4.9 64 3.0 NNE 19 22 10 12 1021.0 1021.0 0.0
02/09:00pm 11.2 6.9 5.3 67 2.7 NNE 17 20 9 11 1021.3 1021.3 0.0
02/08:30pm 11.8 7.0 5.8 66 2.8 NNE 20 24 11 13 1021.5 1021.5 0.0
02/08:00pm 12.0 7.6 7.4 73 2.2 NNE 20 26 11 14 1021.6 1021.6 0.0
02/07:30pm 12.6 7.9 7.7 72 2.4 NNE 22 26 12 14 1021.6 1021.6 0.0
02/07:00pm 12.6 7.9 6.2 65 3.0 NNE 20 24 11 13 1021.5 1021.5 0.0
02/06:30pm 12.6 7.9 6.2 65 3.0 NNE 20 24 11 13 1021.5 1021.5 0.0
02/06:00pm 12.8 8.4 7.4 69 2.6 NNE 20 22 11 12 1021.6 1021.6 0.0
02/05:30pm 13.5 8.8 6.1 61 3.5 NNE 20 24 11 13 1021.5 1021.5 0.0
02/05:00pm 14.2 9.0 5.7 56 4.0 NNE 22 26 12 14 1021.5 1021.5 0.0
02/04:30pm 14.5 10.1 7.4 62 3.5 NE 20 22 11 12 1021.7 1021.7 0.0
02/04:00pm 14.6 10.5 7.7 63 3.4 NE 19 22 10 12 1021.8 1021.8 0.0
02/03:30pm 14.8 10.7 8.7 67 3.1 NE 20 24 11 13 1021.7 1021.7 0.0
02/03:00pm 14.9 10.0 8.5 65 3.2 NE 24 26 13 14 1021.8 1021.8 0.0
02/02:30pm 15.0 11.2 9.8 71 2.7 NE 20 24 11 13 1022.0 1022.0 0.0
02/02:00pm 15.3 11.4 8.6 64 3.4 ENE 19 20 10 11 1022.1 1022.1 0.0
02/01:30pm 15.6 11.7 7.0 56 4.2 ENE 17 19 9 10 1022.3 1022.3 0.0
02/01:00pm 15.8 13.6 7.8 59 4.0 ENE 9 13 5 7 1022.5 1022.5 0.0
02/12:30pm 15.7 13.8 6.7 55 4.4 E 6 7 3 4 1022.9 1022.9 0.0
02/12:00pm 15.4 13.5 6.8 56 4.2 E 6 7 3 4 1023.4 1023.4 0.0
02/11:30am 14.4 12.7 7.7 64 3.3 SSW 6 7 3 4 1023.8 1023.8 0.0
02/11:00am 14.3 12.8 8.5 68 2.9 ESE 6 9 3 5 1024.2 1024.2 0.0
02/10:30am 14.5 12.8 8.3 66 3.1 NNE 7 11 4 6 1024.3 1024.3 0.0
02/10:00am 14.5 11.0 5.6 55 4.2 NNE 13 19 7 10 1024.4 1024.4 0.0
02/09:30am 14.5 10.2 3.1 46 5.1 NW 15 17 8 9 1024.4 1024.4 0.0
02/09:00am 12.4 8.8 5.0 60 3.4 WNW 13 17 7 9 1024.4 1024.4 0.0
02/08:30am 11.4 8.0 5.8 68 2.6 WNW 13 15 7 8 1024.4 1024.4 0.0
02/08:00am 10.8 8.7 5.8 71 2.3 NNW 6 7 3 4 1024.2 1024.2 0.0
02/07:30am 9.3 5.7 5.0 74 1.9 WNW 13 15 7 8 1024.0 1024.0 0.0
02/07:00am 9.5 8.2 4.3 70 2.3 CALM 0 6 0 3 1023.8 1023.8 0.0
02/06:30am 8.8 6.4 4.2 73 2.0 NNW 6 7 3 4 1023.6 1023.6 0.0
02/06:00am 8.6 5.2 4.0 73 2.0 NNW 11 15 6 8 1023.4 1023.4 0.0
02/05:30am 8.5 5.3 5.1 79 1.5 WNW 11 15 6 8 1023.0 1023.0 0.0
02/05:00am 9.5 5.6 3.5 66 2.6 NW 13 15 7 8 1022.9 1022.9 0.0
02/04:30am 10.2 6.0 3.8 64 2.8 NW 15 17 8 9 1022.6 1022.6 0.0
02/04:00am 9.4 6.1 4.4 71 2.2 WNW 11 17 6 9 1022.5 1022.5 0.0
02/03:30am 10.2 5.4 2.7 59 3.2 NW 17 19 9 10 1022.4 1022.4 0.0
02/03:00am 8.1 3.5 3.9 75 1.8 WNW 17 17 9 9 1022.6 1022.6 0.0
02/02:30am 8.6 5.0 3.2 69 2.3 NW 11 15 6 8 1022.7 1022.7 0.0
02/02:00am 7.9 5.4 3.9 76 1.7 NNW 6 9 3 5 1022.8 1022.8 0.0
02/01:30am 8.1 5.1 3.9 75 1.8 WNW 9 11 5 6 1022.9 1022.9 0.0
02/01:00am 8.3 5.4 4.9 79 1.5 W 9 13 5 7 1023.0 1023.0 0.0
02/12:30am 8.6 5.8 5.0 78 1.6 W 9 13 5 7 1023.2 1023.2 0.0
02/12:00am 8.6 6.2 5.2 79 1.5 W 7 9 4 5 1023.3 1023.3 0.0
 
Date/Time
EST
Temp
°C
App
Temp
°C
Dew
Point
°C
Rel
Hum
%
Delta-T
°C
Wind Press
QNH
hPa
Press
MSL
hPa
Rain since
9am
mm
Dir  Spd
km/h
Gust
km/h
Spd
kts
Gust
kts
01/11:30pm 8.2 5.1 5.5 83 1.2 WNW 11 11 6 6 1023.3 1023.3 0.0
01/11:00pm 8.1 7.3 6.3 88 0.8 CALM 0 0 0 0 1023.2 1023.2 0.0
01/10:30pm 8.6 7.9 6.9 89 0.8 CALM 0 0 0 0 1023.1 1023.1 0.0
01/10:00pm 9.1 8.4 7.0 87 1.0 CALM 0 0 0 0 1023.2 1023.2 0.0

Other formats

Comma delimited format used in spreadsheet applications
http://www.bom.gov.au/fwo/IDN60801/IDN60801.94933.axf

JavaScript Object Notation format (JSON) in row-major order
http://www.bom.gov.au/fwo/IDN60801/IDN60801.94933.json

Data quality

Most of these data are generated automatically and are frequently updated. Quality checks on data are not normally performed. It is possible for incorrect values to appear. Refer to information at About Latest Weather Observations and please check the disclaimer before using these data.